createdAt,value
2022-08-29T00:00:05.999Z,7.28
2022-08-29T00:02:33.687Z,7.18
2022-08-29T00:05:03.223Z,7.15
2022-08-29T00:07:30.378Z,7.53
2022-08-29T00:09:57.510Z,7.50
2022-08-29T00:12:24.735Z,7.38
2022-08-29T00:14:51.866Z,7.20
2022-08-29T00:17:19.131Z,7.32
2022-08-29T00:19:46.300Z,6.57
2022-08-29T00:22:13.462Z,6.78
2022-08-29T00:24:40.802Z,6.55
2022-08-29T00:27:07.974Z,5.97
2022-08-29T00:29:35.656Z,6.32
2022-08-29T00:32:02.911Z,6.95
2022-08-29T00:34:30.120Z,6.88
2022-08-29T00:36:57.754Z,7.25
2022-08-29T00:39:25.077Z,7.28
2022-08-29T00:41:53.997Z,6.40
2022-08-29T00:44:21.150Z,6.65
2022-08-29T00:46:50.348Z,6.53
2022-08-29T00:49:26.253Z,6.57
2022-08-29T00:51:53.562Z,7.55
2022-08-29T00:54:20.798Z,6.65
2022-08-29T00:56:48.065Z,6.68
2022-08-29T00:59:19.418Z,7.18
2022-08-29T01:01:46.623Z,6.80
2022-08-29T01:04:15.842Z,7.10
2022-08-29T01:06:51.135Z,6.85
2022-08-29T01:09:18.395Z,7.10
2022-08-29T01:12:04.380Z,6.53
2022-08-29T01:14:33.712Z,6.10
2022-08-29T01:17:02.917Z,6.20
2022-08-29T01:19:48.715Z,6.38
2022-08-29T01:22:25.107Z,7.90
2022-08-29T01:24:53.211Z,7.57
2022-08-29T01:27:21.903Z,7.60
2022-08-29T01:29:49.578Z,6.43
2022-08-29T01:32:17.192Z,6.47
2022-08-29T01:34:44.387Z,5.95
2022-08-29T01:37:12.386Z,6.07
2022-08-29T01:39:40.192Z,6.03
2022-08-29T01:42:10.474Z,7.00
2022-08-29T01:44:37.690Z,7.68
2022-08-29T01:47:05.304Z,7.43
2022-08-29T01:49:33.243Z,7.95
2022-08-29T01:52:00.451Z,7.43
2022-08-29T01:54:29.249Z,8.57
2022-08-29T01:56:56.400Z,9.90
2022-08-29T01:59:26.225Z,11.43
2022-08-29T02:02:05.109Z,16.10
2022-08-29T02:04:32.610Z,16.35
2022-08-29T02:06:59.960Z,17.52
2022-08-29T02:09:27.451Z,16.45
2022-08-29T02:11:55.012Z,17.17
2022-08-29T02:14:23.541Z,18.13
2022-08-29T02:16:50.750Z,17.95
2022-08-29T02:19:17.927Z,19.90
2022-08-29T02:21:45.151Z,18.90
2022-08-29T02:24:24.943Z,18.42
2022-08-29T02:26:52.808Z,19.10
2022-08-29T02:29:19.972Z,19.98
2022-08-29T02:31:47.240Z,19.17
2022-08-29T02:34:14.597Z,18.98
2022-08-29T02:36:42.986Z,20.13
2022-08-29T02:39:11.771Z,20.40
2022-08-29T02:41:38.973Z,20.05
2022-08-29T02:44:07.281Z,20.25
2022-08-29T02:46:34.424Z,22.08
2022-08-29T02:49:01.699Z,20.52
2022-08-29T02:51:32.186Z,20.45
2022-08-29T02:53:59.674Z,20.38
2022-08-29T02:56:27.134Z,20.42
2022-08-29T02:58:54.334Z,19.38
2022-08-29T03:01:21.794Z,19.48
2022-08-29T03:03:50.328Z,19.60
2022-08-29T03:06:17.640Z,19.50
2022-08-29T03:08:44.771Z,19.67
2022-08-29T03:11:11.971Z,19.30
2022-08-29T03:13:39.122Z,18.85
2022-08-29T03:16:06.663Z,18.65
2022-08-29T03:18:33.934Z,17.50
2022-08-29T03:21:01.920Z,17.77
2022-08-29T03:23:29.099Z,17.67
2022-08-29T03:25:56.310Z,17.38
2022-08-29T03:28:23.480Z,17.58
2022-08-29T03:30:50.799Z,17.05
2022-08-29T03:33:18.291Z,17.27
2022-08-29T03:35:45.497Z,16.55
2022-08-29T03:38:12.768Z,16.73
2022-08-29T03:40:41.179Z,17.80
2022-08-29T03:43:09.486Z,17.75
2022-08-29T03:45:36.815Z,18.58
2022-08-29T03:48:04.331Z,17.42
2022-08-29T03:50:31.491Z,17.10
2022-08-29T03:52:59.496Z,16.05
2022-08-29T03:55:26.683Z,16.23
2022-08-29T03:57:55.412Z,17.05
2022-08-29T04:00:22.708Z,15.90
2022-08-29T04:02:51.902Z,15.32
2022-08-29T04:05:19.242Z,16.05
2022-08-29T04:07:50.162Z,16.45
2022-08-29T04:10:19.010Z,17.17
2022-08-29T04:12:47.096Z,15.73
2022-08-29T04:15:16.454Z,16.23
2022-08-29T04:17:52.651Z,24.17
2022-08-29T04:20:24.784Z,20.38
2022-08-29T04:22:52.945Z,19.75
2022-08-29T04:25:20.399Z,19.83
2022-08-29T04:27:48.238Z,20.58
2022-08-29T04:30:16.680Z,19.92
2022-08-29T04:32:43.864Z,19.95
2022-08-29T04:35:12.858Z,20.35
2022-08-29T04:37:40.646Z,19.38
2022-08-29T04:40:09.034Z,19.40
2022-08-29T04:42:37.269Z,19.10
2022-08-29T04:45:05.033Z,19.60
2022-08-29T04:47:32.226Z,19.88
2022-08-29T04:50:00.347Z,20.58
2022-08-29T04:52:28.014Z,19.27
2022-08-29T04:54:55.447Z,20.23
2022-08-29T04:57:23.345Z,18.90
2022-08-29T04:59:54.058Z,19.40
2022-08-29T05:02:21.429Z,19.15
2022-08-29T05:04:52.553Z,19.80
2022-08-29T05:07:22.670Z,19.65
2022-08-29T05:09:50.379Z,19.38
2022-08-29T05:12:18.412Z,19.85
2022-08-29T05:14:45.582Z,21.48
2022-08-29T05:17:14.197Z,19.63
2022-08-29T05:19:45.060Z,20.75
2022-08-29T05:22:13.790Z,21.85
2022-08-29T05:24:41.084Z,19.98
2022-08-29T05:27:11.459Z,18.42
2022-08-29T05:29:40.238Z,17.90
2022-08-29T05:32:08.571Z,17.88
2022-08-29T05:34:36.203Z,17.20
2022-08-29T05:37:04.126Z,18.35
2022-08-29T05:39:31.324Z,19.23
2022-08-29T05:41:58.639Z,17.33
2022-08-29T05:44:26.472Z,17.23
2022-08-29T05:46:53.604Z,16.88
2022-08-29T05:49:20.864Z,18.27
2022-08-29T05:51:48.101Z,17.83
2022-08-29T05:54:15.217Z,18.52
2022-08-29T05:56:42.988Z,17.45
2022-08-29T05:59:12.574Z,17.45
2022-08-29T06:01:39.939Z,17.13
2022-08-29T06:04:07.174Z,17.92
2022-08-29T06:06:34.391Z,18.30
2022-08-29T06:09:01.583Z,18.25
2022-08-29T06:11:30.049Z,17.88
2022-08-29T06:13:57.339Z,18.50
2022-08-29T06:16:25.198Z,23.88
2022-08-29T06:18:52.370Z,22.85
2022-08-29T06:21:19.555Z,21.38
2022-08-29T06:23:46.772Z,23.77
2022-08-29T06:26:14.160Z,23.60
2022-08-29T06:28:43.054Z,23.33
2022-08-29T06:31:10.840Z,21.60
2022-08-29T06:33:38.270Z,22.02
2022-08-29T06:36:05.717Z,21.33
2022-08-29T06:38:33.054Z,20.13
2022-08-29T06:41:07.091Z,21.60
2022-08-29T06:43:34.308Z,22.95
2022-08-29T06:46:01.592Z,20.13
2022-08-29T06:48:29.691Z,19.92
2022-08-29T06:50:57.450Z,18.40
2022-08-29T06:53:31.571Z,21.02
2022-08-29T06:56:03.801Z,31.45
2022-08-29T06:58:32.414Z,25.67
2022-08-29T07:00:59.559Z,29.75
2022-08-29T07:03:26.764Z,21.58
2022-08-29T07:05:54.164Z,24.73
2022-08-29T07:08:21.419Z,25.30
2022-08-29T07:10:48.611Z,24.98
2022-08-29T07:13:16.009Z,25.92
2022-08-29T07:15:43.391Z,22.83
2022-08-29T07:18:10.711Z,24.58
2022-08-29T07:20:40.027Z,32.35
2022-08-29T07:23:08.069Z,16.67
2022-08-29T07:25:36.407Z,14.07
2022-08-29T07:28:03.730Z,12.10
2022-08-29T07:30:30.924Z,14.15
2022-08-29T07:32:58.202Z,11.30
2022-08-29T07:35:30.414Z,12.27
2022-08-29T07:37:58.591Z,12.27
2022-08-29T07:40:25.790Z,10.57
2022-08-29T07:42:52.934Z,10.88
2022-08-29T07:45:20.172Z,10.00
2022-08-29T07:47:47.308Z,9.63
2022-08-29T07:50:14.576Z,9.88
2022-08-29T07:52:41.750Z,10.18
2022-08-29T07:55:10.242Z,9.32
2022-08-29T07:57:40.026Z,9.32
2022-08-29T08:00:11.999Z,9.07
2022-08-29T08:02:39.318Z,9.80
2022-08-29T08:05:07.274Z,10.18
2022-08-29T08:07:35.272Z,10.75
2022-08-29T08:10:04.201Z,9.90
2022-08-29T08:12:31.373Z,12.32
2022-08-29T08:14:58.599Z,14.50
2022-08-29T08:17:25.928Z,11.13
2022-08-29T08:19:53.095Z,10.40
2022-08-29T08:22:20.254Z,8.90
2022-08-29T08:24:48.523Z,8.50
2022-08-29T08:27:15.665Z,8.52
2022-08-29T08:29:44.249Z,8.38
2022-08-29T08:32:11.447Z,9.30
2022-08-29T08:34:38.585Z,9.43
2022-08-29T08:37:08.701Z,9.57
2022-08-29T08:39:36.002Z,9.50
2022-08-29T08:42:07.118Z,10.60
2022-08-29T08:45:03.668Z,9.57
2022-08-29T08:48:01.147Z,8.75
2022-08-29T08:50:32.603Z,8.48
2022-08-29T08:53:19.700Z,12.40
2022-08-29T08:55:50.842Z,8.40
2022-08-29T08:58:36.879Z,8.25
2022-08-29T09:01:04.854Z,7.88
2022-08-29T09:03:50.998Z,8.75
2022-08-29T09:06:27.278Z,8.32
2022-08-29T09:08:54.413Z,9.88
2022-08-29T09:11:28.254Z,8.63
2022-08-29T09:14:04.691Z,9.27
2022-08-29T09:16:40.906Z,16.17
2022-08-29T09:19:09.508Z,9.25
2022-08-29T09:21:49.365Z,8.07
2022-08-29T09:24:20.125Z,8.20
2022-08-29T09:26:47.340Z,8.50
2022-08-29T09:29:14.542Z,7.57
2022-08-29T09:31:41.759Z,7.72
2022-08-29T09:34:11.977Z,8.82
2022-08-29T09:36:40.017Z,8.40
2022-08-29T09:39:14.677Z,8.38
2022-08-29T09:41:41.978Z,8.25
2022-08-29T09:44:09.640Z,8.68
2022-08-29T09:46:36.806Z,8.70
2022-08-29T09:49:03.964Z,8.70
2022-08-29T09:51:31.895Z,8.27
2022-08-29T09:54:17.292Z,8.77
2022-08-29T09:56:51.919Z,8.68
2022-08-29T09:59:38.069Z,8.88
2022-08-29T10:02:13.735Z,8.30
2022-08-29T10:04:41.709Z,9.27
2022-08-29T10:07:14.782Z,9.07
2022-08-29T10:09:41.973Z,8.27
2022-08-29T10:12:12.651Z,8.32
2022-08-29T10:14:50.676Z,8.43
2022-08-29T10:17:40.826Z,11.10
2022-08-29T10:20:09.955Z,10.45
2022-08-29T10:22:39.822Z,9.38
2022-08-29T10:25:10.035Z,8.73
2022-08-29T10:27:37.160Z,7.65
2022-08-29T10:30:07.174Z,6.78
2022-08-29T10:32:34.382Z,7.13
2022-08-29T10:35:04.642Z,7.65
2022-08-29T10:37:31.758Z,7.38
2022-08-29T10:40:04.370Z,6.22
2022-08-29T10:42:32.239Z,6.50
2022-08-29T10:45:13.292Z,6.20
2022-08-29T10:47:59.339Z,6.30
2022-08-29T10:50:44.142Z,6.38
2022-08-29T10:53:15.094Z,6.10
2022-08-29T10:55:42.322Z,6.30
2022-08-29T10:58:12.599Z,6.05
2022-08-29T11:00:43.442Z,6.30
2022-08-29T11:03:19.140Z,5.88
2022-08-29T11:05:48.803Z,6.53
2022-08-29T11:08:19.371Z,6.70
2022-08-29T11:10:49.823Z,6.60
2022-08-29T11:13:21.553Z,6.93
2022-08-29T11:15:52.486Z,6.50
2022-08-29T11:18:22.562Z,6.00
2022-08-29T11:20:51.311Z,6.25
2022-08-29T11:23:27.032Z,6.18
2022-08-29T11:25:54.175Z,5.72
2022-08-29T11:28:27.726Z,5.97
2022-08-29T11:31:00.586Z,6.20
2022-08-29T11:33:27.770Z,6.30
2022-08-29T11:35:54.905Z,5.78
2022-08-29T11:38:40.074Z,5.75
2022-08-29T11:41:29.464Z,5.10
2022-08-29T11:44:17.193Z,5.68
2022-08-29T11:46:46.713Z,6.30
2022-08-29T11:49:20.997Z,5.93
2022-08-29T11:51:51.610Z,6.00
2022-08-29T11:54:25.184Z,6.18
2022-08-29T11:57:01.484Z,6.60
2022-08-29T11:59:56.943Z,6.18
2022-08-29T12:02:30.300Z,5.55
2022-08-29T12:05:04.440Z,5.70
2022-08-29T12:07:34.345Z,5.50
2022-08-29T12:10:02.450Z,5.47
2022-08-29T12:12:48.911Z,5.60
2022-08-29T12:15:31.107Z,5.15
2022-08-29T12:18:02.372Z,5.32
2022-08-29T12:20:42.470Z,5.55
2022-08-29T12:23:12.731Z,5.82
2022-08-29T12:28:48.512Z,7.10
2022-08-29T12:31:34.270Z,7.78
2022-08-29T12:34:04.726Z,6.93
2022-08-29T12:36:52.422Z,7.68
2022-08-29T12:39:25.353Z,7.63
2022-08-29T12:42:04.590Z,6.60
2022-08-29T12:44:35.981Z,7.28
2022-08-29T12:47:04.957Z,6.30
2022-08-29T12:49:41.160Z,6.55
2022-08-29T12:52:09.320Z,6.63
2022-08-29T12:54:41.409Z,6.55
2022-08-29T12:57:18.572Z,7.00
2022-08-29T12:59:50.038Z,6.25
2022-08-29T13:02:30.881Z,6.20
2022-08-29T13:04:58.136Z,6.22
2022-08-29T13:07:25.345Z,7.05
2022-08-29T13:09:52.486Z,6.55
2022-08-29T13:12:24.313Z,6.45
2022-08-29T13:14:57.393Z,6.68
2022-08-29T13:17:25.926Z,6.43
2022-08-29T13:20:11.581Z,7.32
2022-08-29T13:22:38.762Z,6.75
2022-08-29T13:25:06.057Z,6.57
2022-08-29T13:27:33.197Z,7.15
2022-08-29T13:30:01.323Z,7.28
2022-08-29T13:32:28.514Z,7.13
2022-08-29T13:35:05.290Z,7.00
2022-08-29T13:37:39.161Z,6.90
2022-08-29T13:40:25.282Z,7.88
2022-08-29T13:42:52.498Z,7.32
2022-08-29T13:45:23.072Z,7.43
2022-08-29T13:47:57.466Z,7.45
2022-08-29T13:50:24.917Z,7.22
2022-08-29T13:52:52.610Z,7.78
2022-08-29T13:55:19.865Z,8.88
2022-08-29T13:57:47.871Z,10.95
2022-08-29T14:00:15.837Z,12.20
2022-08-29T14:02:45.466Z,8.02
2022-08-29T14:05:13.749Z,9.00
2022-08-29T14:07:41.267Z,8.65
2022-08-29T14:10:09.774Z,7.78
2022-08-29T14:12:36.907Z,8.13
2022-08-29T14:15:09.355Z,8.32
2022-08-29T14:17:37.664Z,8.25
2022-08-29T14:20:05.181Z,8.15
2022-08-29T14:22:32.633Z,7.47
2022-08-29T14:25:01.183Z,7.55
2022-08-29T14:27:28.909Z,7.03
2022-08-29T14:29:56.131Z,7.10
2022-08-29T14:32:24.315Z,7.20
2022-08-29T14:34:54.225Z,7.00
2022-08-29T14:37:21.370Z,7.15
2022-08-29T14:39:50.024Z,7.25
2022-08-29T14:42:17.823Z,7.47
2022-08-29T14:44:44.983Z,7.15
2022-08-29T14:47:12.155Z,7.70
2022-08-29T14:49:39.319Z,6.57
2022-08-29T14:52:07.163Z,7.65
2022-08-29T14:54:34.504Z,7.78
2022-08-29T14:57:01.629Z,7.72
2022-08-29T14:59:28.769Z,8.05
2022-08-29T15:01:56.053Z,8.07
2022-08-29T15:04:36.981Z,8.27
2022-08-29T15:07:12.426Z,8.88
2022-08-29T15:09:39.903Z,9.00
2022-08-29T15:12:07.169Z,7.72
2022-08-29T15:14:34.646Z,8.30
2022-08-29T15:17:02.103Z,8.25
2022-08-29T15:22:16.563Z,7.95
2022-08-29T15:24:44.802Z,8.02
2022-08-29T15:27:11.963Z,9.38
2022-08-29T15:29:40.824Z,10.82
2022-08-29T15:32:08.017Z,7.85
2022-08-29T15:34:35.163Z,8.52
2022-08-29T15:37:02.422Z,8.10
2022-08-29T15:39:29.577Z,7.15
2022-08-29T15:41:57.315Z,7.30
2022-08-29T15:44:25.249Z,7.60
2022-08-29T15:46:52.551Z,7.20
2022-08-29T15:49:20.151Z,6.30
2022-08-29T15:51:48.464Z,6.68
2022-08-29T15:54:15.604Z,6.28
2022-08-29T15:56:42.785Z,6.78
2022-08-29T15:59:10.389Z,6.00
2022-08-29T16:01:38.035Z,5.30
2022-08-29T16:04:08.562Z,5.55
2022-08-29T16:06:36.483Z,6.28
2022-08-29T16:09:03.885Z,5.80
2022-08-29T16:11:42.762Z,5.70
2022-08-29T16:14:46.821Z,6.13
2022-08-29T16:16:59.740Z,5.55
2022-08-29T16:19:26.899Z,5.47
2022-08-29T16:21:54.111Z,5.30
2022-08-29T16:24:23.002Z,7.60
2022-08-29T16:26:50.168Z,5.85
2022-08-29T16:29:26.224Z,6.35
2022-08-29T16:31:54.061Z,5.45
2022-08-29T16:34:23.148Z,6.60
2022-08-29T16:36:50.325Z,7.88
2022-08-29T16:39:17.555Z,5.93
2022-08-29T16:41:45.266Z,6.25
2022-08-29T16:44:12.417Z,6.57
2022-08-29T16:46:39.581Z,6.38
2022-08-29T16:49:07.090Z,6.85
2022-08-29T16:51:34.360Z,6.97
2022-08-29T16:54:01.535Z,8.07
2022-08-29T16:56:28.798Z,7.50
2022-08-29T16:58:59.533Z,7.40
2022-08-29T17:01:27.469Z,7.50
2022-08-29T17:03:54.674Z,7.65
2022-08-29T17:06:21.802Z,7.53
2022-08-29T17:08:48.925Z,7.45
2022-08-29T17:11:16.595Z,8.48
2022-08-29T17:13:43.685Z,6.93
2022-08-29T17:16:10.957Z,6.80
2022-08-29T17:18:38.275Z,7.55
2022-08-29T17:21:05.504Z,8.20
2022-08-29T17:23:32.751Z,8.93
2022-08-29T17:26:00.232Z,10.13
2022-08-29T17:28:27.571Z,10.02
2022-08-29T17:30:55.074Z,8.57
2022-08-29T17:33:22.291Z,12.38
2022-08-29T17:35:49.507Z,11.45
2022-08-29T17:38:16.955Z,9.30
2022-08-29T17:40:46.033Z,8.10
2022-08-29T17:43:14.855Z,9.85
2022-08-29T17:45:42.224Z,11.00
2022-08-29T17:48:09.433Z,11.20
2022-08-29T17:50:37.513Z,11.50
2022-08-29T17:53:04.712Z,13.18
2022-08-29T17:55:31.842Z,14.07
2022-08-29T17:57:59.383Z,15.25
2022-08-29T18:00:26.660Z,16.23
2022-08-29T18:02:53.853Z,18.45
2022-08-29T18:05:21.051Z,21.27
2022-08-29T18:07:48.211Z,20.67
2022-08-29T18:10:15.787Z,23.42
2022-08-29T18:12:42.947Z,20.63
2022-08-29T18:15:11.525Z,21.38
2022-08-29T18:17:38.767Z,17.48
2022-08-29T18:20:07.611Z,14.88
2022-08-29T18:22:34.875Z,11.77
2022-08-29T18:25:02.114Z,11.93
2022-08-29T18:27:29.452Z,10.98
2022-08-29T18:29:57.766Z,10.55
2022-08-29T18:32:25.569Z,11.32
2022-08-29T18:34:57.578Z,11.93
2022-08-29T18:37:28.064Z,11.32
2022-08-29T18:39:55.206Z,12.27
2022-08-29T18:42:39.465Z,12.38
2022-08-29T18:45:08.003Z,11.55
2022-08-29T18:47:35.128Z,12.00
2022-08-29T18:50:24.831Z,16.20
2022-08-29T18:52:52.548Z,10.75
2022-08-29T18:55:19.841Z,11.90
2022-08-29T18:57:48.294Z,12.68
2022-08-29T19:00:15.941Z,11.80
2022-08-29T19:02:43.206Z,10.85
2022-08-29T19:05:10.493Z,9.68
2022-08-29T19:07:39.891Z,11.02
2022-08-29T19:10:07.263Z,13.18
2022-08-29T19:12:34.689Z,16.08
2022-08-29T19:15:04.103Z,14.98
2022-08-29T19:17:31.450Z,19.80
2022-08-29T19:20:17.191Z,19.30
2022-08-29T19:22:44.464Z,21.60
2022-08-29T19:25:11.615Z,19.98
2022-08-29T19:27:46.137Z,19.27
2022-08-29T19:30:14.031Z,18.67
2022-08-29T19:32:41.292Z,15.57
2022-08-29T19:35:09.350Z,16.85
2022-08-29T19:37:36.528Z,15.80
2022-08-29T19:40:05.245Z,14.02
2022-08-29T19:42:32.986Z,13.63
2022-08-29T19:45:00.256Z,14.13
2022-08-29T19:47:29.154Z,13.90
2022-08-29T19:49:56.475Z,13.52
2022-08-29T19:52:24.780Z,12.98
2022-08-29T19:54:53.646Z,11.63
2022-08-29T19:57:20.795Z,11.95
2022-08-29T19:59:48.797Z,11.57
2022-08-29T20:02:15.990Z,11.38
2022-08-29T20:04:43.200Z,11.45
2022-08-29T20:07:10.351Z,10.52
2022-08-29T20:09:37.519Z,10.55
2022-08-29T20:12:05.385Z,11.60
2022-08-29T20:14:32.630Z,13.93
2022-08-29T20:17:01.857Z,12.10
2022-08-29T20:19:32.143Z,14.32
2022-08-29T20:21:59.290Z,12.27
2022-08-29T20:24:27.155Z,11.93
2022-08-29T20:26:54.346Z,10.80
2022-08-29T20:29:23.931Z,12.73
2022-08-29T20:31:54.288Z,19.00
2022-08-29T20:34:21.712Z,44.10
2022-08-29T20:37:07.441Z,29.20
2022-08-29T20:39:34.567Z,26.13
2022-08-29T20:42:02.178Z,17.35
2022-08-29T20:44:34.019Z,18.02
2022-08-29T20:47:01.374Z,15.60
2022-08-29T20:49:28.521Z,16.40
2022-08-29T20:51:55.690Z,14.73
2022-08-29T20:54:24.323Z,13.05
2022-08-29T20:56:51.714Z,13.77
2022-08-29T20:59:18.984Z,11.90
2022-08-29T21:01:46.515Z,11.32
2022-08-29T21:04:32.547Z,10.57
2022-08-29T21:07:03.738Z,10.85
2022-08-29T21:09:30.923Z,10.05
2022-08-29T21:11:58.157Z,11.25
2022-08-29T21:14:27.196Z,10.75
2022-08-29T21:16:54.945Z,10.50
2022-08-29T21:19:22.359Z,10.88
2022-08-29T21:21:51.288Z,10.38
2022-08-29T21:24:20.390Z,8.90
2022-08-29T21:26:48.266Z,9.95
2022-08-29T21:29:15.498Z,9.55
2022-08-29T21:31:42.757Z,9.80
2022-08-29T21:34:13.389Z,9.38
2022-08-29T21:36:40.585Z,9.13
2022-08-29T21:39:08.404Z,9.50
2022-08-29T21:41:37.780Z,9.50
2022-08-29T21:44:04.935Z,10.00
2022-08-29T21:46:33.213Z,9.43
2022-08-29T21:49:02.184Z,9.57
2022-08-29T21:51:29.587Z,9.70
2022-08-29T21:53:56.904Z,9.80
2022-08-29T21:56:24.709Z,9.07
2022-08-29T21:58:56.164Z,9.32
2022-08-29T22:01:26.774Z,9.10
2022-08-29T22:03:54.553Z,8.13
2022-08-29T22:06:21.759Z,8.15
2022-08-29T22:08:49.182Z,8.65
2022-08-29T22:11:18.507Z,9.02
2022-08-29T22:13:45.692Z,9.23
2022-08-29T22:16:31.698Z,8.60
2022-08-29T22:19:07.726Z,8.90
2022-08-29T22:21:38.691Z,8.57
2022-08-29T22:24:06.786Z,8.98
2022-08-29T22:26:33.937Z,10.05
2022-08-29T22:29:01.243Z,9.55
2022-08-29T22:31:28.465Z,9.50
2022-08-29T22:33:55.671Z,8.77
2022-08-29T22:36:22.885Z,8.80
2022-08-29T22:38:56.569Z,8.38
2022-08-29T22:41:24.215Z,8.40
2022-08-29T22:44:08.763Z,8.75
2022-08-29T22:46:38.709Z,8.40
2022-08-29T22:49:05.891Z,8.38
2022-08-29T22:51:32.998Z,8.13
2022-08-29T22:54:19.038Z,9.23
2022-08-29T22:56:46.230Z,8.52
2022-08-29T22:59:13.538Z,8.82
2022-08-29T23:01:41.896Z,7.82
2022-08-29T23:04:09.109Z,8.32
2022-08-29T23:06:36.380Z,8.88
2022-08-29T23:09:04.017Z,9.48
2022-08-29T23:11:31.257Z,10.00
2022-08-29T23:13:58.399Z,9.30
2022-08-29T23:16:26.366Z,10.00
2022-08-29T23:18:53.514Z,9.98
2022-08-29T23:21:22.869Z,9.55
2022-08-29T23:23:50.710Z,10.30
2022-08-29T23:26:18.000Z,8.93
2022-08-29T23:28:45.152Z,8.70
2022-08-29T23:31:12.406Z,9.75
2022-08-29T23:33:39.606Z,10.27
2022-08-29T23:36:06.832Z,10.32
2022-08-29T23:38:34.005Z,10.35
2022-08-29T23:41:02.195Z,11.27
2022-08-29T23:43:29.934Z,10.80
2022-08-29T23:46:04.371Z,10.18
2022-08-29T23:48:31.647Z,10.43
2022-08-29T23:50:58.861Z,10.80
2022-08-29T23:53:26.060Z,10.25
2022-08-29T23:55:53.935Z,10.57
2022-08-29T23:58:21.089Z,10.38
